createdAt,value
2023-04-05T00:00:39.433Z,3.90
2023-04-05T00:03:07.007Z,3.90
2023-04-05T00:05:34.725Z,3.80
2023-04-05T00:08:03.315Z,3.80
2023-04-05T00:10:31.735Z,3.80
2023-04-05T00:13:01.033Z,3.70
2023-04-05T00:15:28.258Z,3.70
2023-04-05T00:17:55.999Z,3.60
2023-04-05T00:20:23.110Z,3.60
2023-04-05T00:22:52.826Z,3.60
2023-04-05T00:25:21.798Z,3.60
2023-04-05T00:27:48.747Z,3.60
2023-04-05T00:30:21.165Z,3.60
2023-04-05T00:32:52.307Z,3.50
2023-04-05T00:35:20.254Z,3.60
2023-04-05T00:37:47.226Z,3.50
2023-04-05T00:40:14.438Z,3.50
2023-04-05T00:42:41.434Z,3.50
2023-04-05T00:45:09.082Z,3.50
2023-04-05T00:47:37.165Z,3.40
2023-04-05T00:50:06.488Z,3.40
2023-04-05T00:52:34.838Z,3.40
2023-04-05T00:55:02.517Z,3.30
2023-04-05T00:57:30.297Z,3.30
2023-04-05T01:00:00.663Z,3.20
2023-04-05T01:02:45.978Z,3.20
2023-04-05T01:05:37.644Z,3.10
2023-04-05T01:08:28.748Z,3.10
2023-04-05T01:11:02.842Z,3.10
2023-04-05T01:13:30.701Z,3.10
2023-04-05T01:15:58.509Z,3.00
2023-04-05T01:18:27.588Z,3.10
2023-04-05T01:21:38.643Z,3.00
2023-04-05T01:24:52.817Z,2.90
2023-04-05T01:27:31.493Z,2.90
2023-04-05T01:30:29.866Z,2.80
2023-04-05T01:33:19.088Z,2.80
2023-04-05T01:36:29.805Z,2.80
2023-04-05T01:38:58.094Z,2.80
2023-04-05T01:41:26.243Z,2.70
2023-04-05T01:43:53.254Z,2.70
2023-04-05T01:46:20.641Z,2.70
2023-04-05T01:48:47.931Z,2.60
2023-04-05T01:51:15.000Z,2.60
2023-04-05T01:53:42.073Z,2.60
2023-04-05T01:56:09.109Z,2.50
2023-04-05T01:58:37.575Z,2.50
2023-04-05T02:01:04.946Z,2.40
2023-04-05T02:03:32.134Z,2.40
2023-04-05T02:05:59.245Z,2.30
2023-04-05T02:08:26.139Z,2.30
2023-04-05T02:10:54.530Z,2.30
2023-04-05T02:13:22.302Z,2.30
2023-04-05T02:15:50.350Z,2.20
2023-04-05T02:18:22.521Z,2.20
2023-04-05T02:20:51.831Z,2.20
2023-04-05T02:23:20.513Z,2.20
2023-04-05T02:25:47.467Z,2.10
2023-04-05T02:28:14.717Z,2.10
2023-04-05T02:30:41.919Z,2.10
2023-04-05T02:33:10.931Z,2.00
2023-04-05T02:35:38.726Z,2.00
2023-04-05T02:38:06.043Z,1.90
2023-04-05T02:40:35.551Z,1.90
2023-04-05T02:43:02.814Z,1.90
2023-04-05T02:45:29.887Z,1.90
2023-04-05T02:47:59.209Z,1.80
2023-04-05T02:50:30.289Z,1.80
2023-04-05T02:52:57.286Z,1.80
2023-04-05T02:55:24.713Z,1.70
2023-04-05T02:57:51.737Z,1.70
2023-04-05T03:00:25.750Z,1.70
2023-04-05T03:02:55.568Z,1.70
2023-04-05T03:05:23.047Z,1.60
2023-04-05T03:07:52.772Z,1.60
2023-04-05T03:10:26.248Z,1.60
2023-04-05T03:12:58.772Z,1.50
2023-04-05T03:15:28.082Z,1.50
2023-04-05T03:17:57.669Z,1.50
2023-04-05T03:20:25.383Z,1.50
2023-04-05T03:22:56.544Z,1.40
2023-04-05T03:25:28.650Z,1.40
2023-04-05T03:27:55.888Z,1.40
2023-04-05T03:30:26.684Z,1.40
2023-04-05T03:33:03.327Z,1.30
2023-04-05T03:35:48.755Z,1.30
2023-04-05T03:38:16.774Z,1.30
2023-04-05T03:40:54.582Z,1.30
2023-04-05T03:43:21.650Z,1.20
2023-04-05T03:45:48.654Z,1.30
2023-04-05T03:48:20.928Z,1.20
2023-04-05T03:50:49.592Z,1.20
2023-04-05T03:53:19.081Z,1.20
2023-04-05T03:55:50.375Z,1.10
2023-04-05T03:58:20.954Z,1.10
2023-04-05T04:00:48.761Z,1.10
2023-04-05T04:03:21.538Z,1.10
2023-04-05T04:05:52.143Z,1.00
2023-04-05T04:08:20.266Z,1.00
2023-04-05T04:10:47.399Z,1.00
2023-04-05T04:13:24.141Z,1.00
2023-04-05T04:15:59.922Z,1.00
2023-04-05T04:18:45.341Z,1.00
2023-04-05T04:21:35.770Z,0.90
2023-04-05T04:24:27.074Z,0.90
2023-04-05T04:27:03.566Z,0.90
2023-04-05T04:29:48.961Z,0.90
2023-04-05T04:32:49.409Z,0.80
2023-04-05T04:35:29.368Z,0.80
2023-04-05T04:38:09.745Z,0.80
2023-04-05T04:41:02.540Z,0.80
2023-04-05T04:43:43.666Z,0.80
2023-04-05T04:46:19.078Z,0.80
2023-04-05T04:49:07.770Z,0.80
2023-04-05T04:51:37.946Z,0.80
2023-04-05T04:54:05.505Z,0.70
2023-04-05T04:56:32.488Z,0.70
2023-04-05T04:59:00.850Z,0.70
2023-04-05T05:01:27.948Z,0.70
2023-04-05T05:03:55.146Z,0.70
2023-04-05T05:06:31.675Z,0.70
2023-04-05T05:09:00.953Z,0.60
2023-04-05T05:11:29.312Z,0.60
2023-04-05T05:13:56.739Z,0.70
2023-04-05T05:16:26.715Z,0.60
2023-04-05T05:18:55.076Z,0.60
2023-04-05T05:21:24.618Z,0.70
2023-04-05T05:24:10.510Z,0.60
2023-04-05T05:26:38.130Z,0.70
2023-04-05T05:29:05.269Z,0.70
2023-04-05T05:31:36.584Z,0.70
2023-04-05T05:34:03.628Z,0.70
2023-04-05T05:36:31.288Z,0.70
2023-04-05T05:38:58.402Z,0.80
2023-04-05T05:41:25.734Z,0.80
2023-04-05T05:43:53.738Z,0.80
2023-04-05T05:46:21.408Z,0.80
2023-04-05T05:48:48.361Z,0.90
2023-04-05T05:51:15.997Z,0.90
2023-04-05T05:53:43.060Z,0.90
2023-04-05T05:56:10.490Z,1.00
2023-04-05T05:58:39.687Z,1.00
2023-04-05T06:01:07.553Z,1.10
2023-04-05T06:03:34.817Z,1.10
2023-04-05T06:06:05.839Z,1.20
2023-04-05T06:08:33.020Z,1.30
2023-04-05T06:11:00.131Z,1.40
2023-04-05T06:13:27.078Z,1.40
2023-04-05T06:15:54.071Z,1.50
2023-04-05T06:18:21.640Z,1.60
2023-04-05T06:20:48.592Z,1.60
2023-04-05T06:23:16.191Z,1.70
2023-04-05T06:25:43.940Z,1.80
2023-04-05T06:28:10.970Z,1.90
2023-04-05T06:30:38.204Z,2.10
2023-04-05T06:33:05.788Z,2.30
2023-04-05T06:35:32.869Z,2.50
2023-04-05T06:37:59.989Z,2.70
2023-04-05T06:40:27.282Z,2.90
2023-04-05T06:42:55.130Z,3.00
2023-04-05T06:45:27.744Z,3.30
2023-04-05T06:47:55.078Z,3.40
2023-04-05T06:50:22.243Z,3.60
2023-04-05T06:52:49.416Z,3.70
2023-04-05T06:55:17.063Z,3.90
2023-04-05T06:57:44.216Z,4.00
2023-04-05T07:00:13.429Z,4.10
2023-04-05T07:02:41.049Z,4.20
2023-04-05T07:05:08.836Z,4.40
2023-04-05T07:07:44.393Z,4.50
2023-04-05T07:10:21.745Z,4.60
2023-04-05T07:13:18.294Z,4.80
2023-04-05T07:16:05.265Z,4.90
2023-04-05T07:19:10.591Z,5.10
2023-04-05T07:21:37.710Z,5.20
2023-04-05T07:24:06.445Z,5.40
2023-04-05T07:26:37.250Z,5.50
2023-04-05T07:29:05.028Z,5.60
2023-04-05T07:31:32.029Z,5.80
2023-04-05T07:34:01.294Z,6.00
2023-04-05T07:36:30.818Z,6.30
2023-04-05T07:38:58.575Z,6.40
2023-04-05T07:41:28.224Z,6.70
2023-04-05T07:43:55.185Z,6.90
2023-04-05T07:46:22.461Z,7.10
2023-04-05T07:48:49.641Z,7.40
2023-04-05T07:51:16.586Z,7.70
2023-04-05T07:53:43.968Z,7.90
2023-04-05T07:56:14.204Z,8.20
2023-04-05T07:58:42.050Z,8.40
2023-04-05T08:01:11.177Z,8.70
2023-04-05T08:03:40.031Z,9.00
2023-04-05T08:06:11.533Z,9.30
2023-04-05T08:08:38.972Z,9.50
2023-04-05T08:11:06.581Z,9.50
2023-04-05T08:13:38.571Z,9.50
2023-04-05T08:16:06.157Z,9.60
2023-04-05T08:18:33.239Z,9.90
2023-04-05T08:21:01.123Z,10.10
2023-04-05T08:23:28.284Z,10.40
2023-04-05T08:25:56.025Z,10.80
2023-04-05T08:28:22.994Z,10.90
2023-04-05T08:30:57.646Z,11.10
2023-04-05T08:33:26.512Z,11.10
2023-04-05T08:35:53.614Z,11.20
2023-04-05T08:38:21.168Z,11.60
2023-04-05T08:40:52.867Z,11.80
2023-04-05T08:43:59.454Z,12.10
2023-04-05T08:46:31.833Z,12.40
2023-04-05T08:49:02.417Z,12.60
2023-04-05T08:51:31.458Z,12.80
2023-04-05T08:54:02.225Z,13.00
2023-04-05T08:56:34.582Z,13.20
2023-04-05T08:59:11.340Z,13.50
2023-04-05T09:01:46.976Z,13.50
2023-04-05T09:04:24.755Z,13.60
2023-04-05T09:06:55.570Z,13.70
2023-04-05T09:09:24.752Z,13.90
2023-04-05T09:11:52.708Z,14.00
2023-04-05T09:14:21.610Z,14.10
2023-04-05T09:16:48.992Z,14.30
2023-04-05T09:19:17.193Z,14.10
2023-04-05T09:22:05.015Z,14.10
2023-04-05T09:24:43.616Z,14.30
2023-04-05T09:27:19.922Z,14.40
2023-04-05T09:30:24.466Z,14.70
2023-04-05T09:32:55.146Z,14.70
2023-04-05T09:35:26.503Z,14.70
2023-04-05T09:37:57.548Z,14.90
2023-04-05T09:40:49.749Z,15.00
2023-04-05T09:43:39.183Z,14.90
2023-04-05T09:46:16.504Z,14.80
2023-04-05T09:48:51.516Z,14.80
2023-04-05T09:51:19.950Z,15.10
2023-04-05T09:54:04.994Z,15.30
2023-04-05T09:56:41.235Z,15.40
2023-04-05T09:59:12.869Z,15.50
2023-04-05T10:01:44.855Z,15.80
2023-04-05T10:04:12.618Z,16.20
2023-04-05T10:06:42.986Z,16.50
2023-04-05T10:09:15.093Z,16.50
2023-04-05T10:11:44.836Z,16.60
2023-04-05T10:14:11.942Z,16.70
2023-04-05T10:16:50.894Z,16.90
2023-04-05T10:19:31.451Z,17.00
2023-04-05T10:22:02.721Z,17.10
2023-04-05T10:24:52.127Z,17.10
2023-04-05T10:27:31.495Z,17.10
2023-04-05T10:30:06.076Z,17.10
2023-04-05T10:33:10.716Z,17.30
2023-04-05T10:36:16.468Z,17.40
2023-04-05T10:39:00.746Z,17.50
2023-04-05T10:41:34.183Z,17.80
2023-04-05T10:44:11.955Z,17.90
2023-04-05T10:46:46.820Z,17.90
2023-04-05T10:49:46.501Z,18.00
2023-04-05T10:52:14.747Z,17.90
2023-04-05T10:54:43.008Z,17.70
2023-04-05T10:57:11.533Z,17.80
2023-04-05T10:59:47.044Z,17.90
2023-04-05T11:02:16.390Z,18.00
2023-04-05T11:04:43.788Z,18.10
2023-04-05T11:07:13.079Z,18.10
2023-04-05T11:10:01.260Z,18.20
2023-04-05T11:12:46.524Z,18.10
2023-04-05T11:15:42.731Z,18.20
2023-04-05T11:18:31.124Z,18.30
2023-04-05T11:21:08.377Z,18.40
2023-04-05T11:24:03.887Z,18.60
2023-04-05T11:26:56.088Z,18.60
2023-04-05T11:29:51.857Z,18.70
2023-04-05T11:32:18.700Z,18.80
2023-04-05T11:35:01.420Z,18.90
2023-04-05T11:38:02.490Z,19.00
2023-04-05T11:40:30.576Z,19.20
2023-04-05T11:43:06.135Z,19.40
2023-04-05T11:45:34.971Z,19.50
2023-04-05T11:48:14.387Z,19.30
2023-04-05T11:50:42.473Z,19.00
2023-04-05T11:53:12.867Z,19.00
2023-04-05T11:55:43.977Z,18.60
2023-04-05T11:58:24.106Z,18.70
2023-04-05T12:01:07.810Z,18.80
2023-04-05T12:03:37.109Z,18.80
2023-04-05T12:06:07.696Z,18.90
2023-04-05T12:08:42.417Z,19.10
2023-04-05T12:11:13.463Z,19.40
2023-04-05T12:13:41.143Z,19.50
2023-04-05T12:16:09.640Z,19.20
2023-04-05T12:18:38.096Z,18.70
2023-04-05T12:21:09.196Z,18.50
2023-04-05T12:23:37.430Z,18.60
2023-04-05T12:26:07.074Z,18.70
2023-04-05T12:28:53.411Z,18.80
2023-04-05T12:31:57.483Z,19.00
2023-04-05T12:34:27.992Z,19.20
2023-04-05T12:36:55.035Z,19.30
2023-04-05T12:39:22.106Z,19.40
2023-04-05T12:42:01.500Z,19.50
2023-04-05T12:44:30.920Z,19.50
2023-04-05T12:47:10.334Z,19.60
2023-04-05T12:49:40.355Z,19.70
2023-04-05T12:52:07.770Z,19.70
2023-04-05T12:54:34.783Z,19.50
2023-04-05T12:57:09.170Z,19.30
2023-04-05T12:59:36.294Z,19.40
2023-04-05T13:02:03.482Z,19.60
2023-04-05T13:04:30.747Z,19.60
2023-04-05T13:06:57.701Z,19.50
2023-04-05T13:09:24.791Z,19.40
2023-04-05T13:11:51.791Z,19.10
2023-04-05T13:14:18.802Z,18.70
2023-04-05T13:16:45.837Z,18.50
2023-04-05T13:19:12.764Z,18.60
2023-04-05T13:21:39.864Z,18.60
2023-04-05T13:24:07.072Z,18.80
2023-04-05T13:26:34.098Z,19.00
2023-04-05T13:29:02.809Z,19.40
2023-04-05T13:31:29.867Z,19.70
2023-04-05T13:33:57.631Z,19.90
2023-04-05T13:36:25.003Z,20.00
2023-04-05T13:38:52.010Z,19.70
2023-04-05T13:41:19.085Z,19.20
2023-04-05T13:43:46.111Z,19.00
2023-04-05T13:46:13.075Z,19.20
2023-04-05T13:48:40.043Z,19.20
2023-04-05T13:51:07.094Z,19.30
2023-04-05T13:53:34.100Z,19.40
2023-04-05T13:56:01.240Z,19.60
2023-04-05T13:58:28.328Z,19.60
2023-04-05T14:00:55.502Z,19.60
2023-04-05T14:03:22.979Z,19.80
2023-04-05T14:05:51.238Z,19.90
2023-04-05T14:08:19.779Z,20.00
2023-04-05T14:10:46.912Z,20.00
2023-04-05T14:13:16.402Z,20.10
2023-04-05T14:15:44.087Z,19.90
2023-04-05T14:18:11.295Z,19.80
2023-04-05T14:20:38.811Z,19.70
2023-04-05T14:23:06.732Z,19.70
2023-04-05T14:25:33.826Z,19.70
2023-04-05T14:28:01.084Z,19.80
2023-04-05T14:30:28.219Z,19.90
2023-04-05T14:32:55.215Z,20.00
2023-04-05T14:35:22.523Z,20.10
2023-04-05T14:38:01.354Z,20.10
2023-04-05T14:40:39.251Z,19.80
2023-04-05T14:43:10.073Z,19.60
2023-04-05T14:45:41.588Z,19.60
2023-04-05T14:48:16.040Z,19.40
2023-04-05T14:51:02.524Z,19.40
2023-04-05T14:53:39.742Z,19.20
2023-04-05T14:56:23.069Z,19.00
2023-04-05T14:59:08.303Z,18.70
2023-04-05T15:01:44.410Z,18.50
2023-04-05T15:04:24.263Z,18.20
2023-04-05T15:06:53.125Z,18.10
2023-04-05T15:09:49.598Z,18.20
2023-04-05T15:12:28.623Z,18.20
2023-04-05T15:15:05.692Z,18.30
2023-04-05T15:17:45.570Z,18.00
2023-04-05T15:20:20.401Z,17.60
2023-04-05T15:22:50.792Z,17.50
2023-04-05T15:25:46.250Z,17.30
2023-04-05T15:28:45.636Z,17.20
2023-04-05T15:31:34.041Z,17.20
2023-04-05T15:34:17.717Z,17.30
2023-04-05T15:36:56.991Z,17.30
2023-04-05T15:39:33.918Z,17.40
2023-04-05T15:42:11.416Z,17.40
2023-04-05T15:44:59.671Z,17.30
2023-04-05T15:47:36.833Z,17.20
2023-04-05T15:50:14.744Z,17.00
2023-04-05T15:52:58.494Z,16.80
2023-04-05T15:55:43.040Z,16.50
2023-04-05T15:58:38.885Z,16.40
2023-04-05T16:01:16.748Z,16.30
2023-04-05T16:03:52.127Z,16.40
2023-04-05T16:06:36.249Z,16.30
2023-04-05T16:12:37.702Z,15.80
2023-04-05T16:15:17.718Z,15.60
2023-04-05T16:17:55.581Z,15.60
2023-04-05T16:20:38.833Z,15.40
2023-04-05T16:23:18.079Z,15.30
2023-04-05T16:25:54.749Z,15.20
2023-04-05T16:28:40.866Z,15.20
2023-04-05T16:31:17.354Z,15.10
2023-04-05T16:34:03.607Z,15.00
2023-04-05T16:36:33.060Z,14.90
2023-04-05T16:39:14.722Z,14.80
2023-04-05T16:41:55.868Z,14.80
2023-04-05T16:44:40.035Z,14.70
2023-04-05T16:47:22.253Z,14.70
2023-04-05T16:50:06.835Z,14.50
2023-04-05T16:55:39.750Z,14.30
2023-04-05T16:58:12.672Z,14.20
2023-04-05T17:00:45.416Z,14.00
2023-04-05T17:03:22.457Z,14.00
2023-04-05T17:05:54.556Z,13.90
2023-04-05T17:08:27.310Z,13.80
2023-04-05T17:10:59.207Z,13.80
2023-04-05T17:13:45.392Z,13.70
2023-04-05T17:16:25.846Z,13.50
2023-04-05T17:18:58.488Z,13.30
2023-04-05T17:21:37.938Z,13.20
2023-04-05T17:24:26.859Z,13.10
2023-04-05T17:27:06.861Z,13.00
2023-04-05T17:29:38.136Z,12.80
2023-04-05T17:32:16.648Z,12.70
2023-04-05T17:34:59.470Z,12.60
2023-04-05T17:37:31.040Z,12.50
2023-04-05T17:40:17.011Z,12.40
2023-04-05T17:42:52.459Z,12.40
2023-04-05T17:45:31.653Z,12.30
2023-04-05T17:48:20.576Z,12.20
2023-04-05T17:51:15.127Z,12.20
2023-04-05T17:54:09.023Z,12.10
2023-04-05T17:56:46.228Z,12.00
2023-04-05T17:59:18.954Z,11.80
2023-04-05T18:01:53.968Z,11.70
2023-04-05T18:04:28.966Z,11.70
2023-04-05T18:07:01.260Z,11.60
2023-04-05T18:09:49.892Z,11.50
2023-04-05T18:12:43.160Z,11.40
2023-04-05T18:15:17.825Z,11.40
2023-04-05T18:17:59.214Z,11.30
2023-04-05T18:20:40.340Z,11.20
2023-04-05T18:26:06.255Z,11.00
2023-04-05T18:29:05.441Z,10.90
2023-04-05T18:31:40.053Z,10.90
2023-04-05T18:34:22.646Z,10.80
2023-04-05T18:37:00.076Z,10.70
2023-04-05T18:39:35.608Z,10.60
2023-04-05T18:42:09.301Z,10.50
2023-04-05T18:44:50.637Z,10.40
2023-04-05T18:47:37.280Z,10.30
2023-04-05T18:50:22.831Z,10.30
2023-04-05T18:52:53.838Z,10.10
2023-04-05T18:55:37.277Z,10.00
2023-04-05T18:58:19.124Z,9.90
2023-04-05T19:00:55.048Z,9.80
2023-04-05T19:03:29.561Z,9.90
2023-04-05T19:06:10.090Z,9.80
2023-04-05T19:08:48.315Z,9.70
2023-04-05T19:11:25.704Z,9.60
2023-04-05T19:14:06.914Z,9.50
2023-04-05T19:16:56.865Z,9.30
2023-04-05T19:19:36.288Z,9.20
2023-04-05T19:22:15.869Z,9.10
2023-04-05T19:24:50.607Z,9.00
2023-04-05T19:27:24.824Z,8.90
2023-04-05T19:29:57.646Z,8.80
2023-04-05T19:35:26.011Z,8.70
2023-04-05T19:38:09.431Z,8.60
2023-04-05T19:40:42.823Z,8.60
2023-04-05T19:43:26.045Z,8.50
2023-04-05T19:46:05.132Z,8.50
2023-04-05T19:48:44.289Z,8.50
2023-04-05T19:51:24.227Z,8.50
2023-04-05T19:54:02.620Z,8.40
2023-04-05T19:56:39.496Z,8.40
2023-04-05T19:59:40.247Z,8.30
2023-04-05T20:02:46.556Z,8.20
2023-04-05T20:05:49.878Z,8.10
2023-04-05T20:08:25.821Z,8.10
2023-04-05T20:10:57.465Z,8.00
2023-04-05T20:13:35.908Z,7.90
2023-04-05T20:16:06.114Z,7.90
2023-04-05T20:18:41.745Z,7.80
2023-04-05T20:21:20.290Z,7.80
2023-04-05T20:23:56.664Z,7.70
2023-04-05T20:26:37.093Z,7.60
2023-04-05T20:29:21.857Z,7.50
2023-04-05T20:32:22.821Z,7.40
2023-04-05T20:34:56.955Z,7.20
2023-04-05T20:37:26.009Z,7.10
2023-04-05T20:39:55.796Z,7.00
2023-04-05T20:42:42.636Z,6.90
2023-04-05T20:45:14.229Z,6.80
2023-04-05T20:47:52.880Z,6.80
2023-04-05T20:50:25.002Z,6.80
2023-04-05T20:53:00.793Z,6.70
2023-04-05T20:55:30.938Z,6.70
2023-04-05T20:58:19.704Z,6.70
2023-04-05T21:00:48.641Z,6.60
2023-04-05T21:03:20.123Z,6.60
2023-04-05T21:05:55.374Z,6.60
2023-04-05T21:08:34.610Z,6.60
2023-04-05T21:11:14.324Z,6.50
2023-04-05T21:13:50.163Z,6.40
2023-04-05T21:16:27.320Z,6.40
2023-04-05T21:19:00.008Z,6.30
2023-04-05T21:21:31.966Z,6.20
2023-04-05T21:24:18.649Z,6.10
2023-04-05T21:26:53.385Z,6.10
2023-04-05T21:29:25.437Z,6.00
2023-04-05T21:31:57.471Z,6.00
2023-04-05T21:34:31.049Z,6.00
2023-04-05T21:37:03.117Z,5.90
2023-04-05T21:39:47.298Z,5.90
2023-04-05T21:42:18.606Z,5.90
2023-04-05T21:44:47.462Z,5.80
2023-04-05T21:47:22.494Z,5.70
2023-04-05T21:49:57.683Z,5.60
2023-04-05T21:52:28.201Z,5.60
2023-04-05T21:55:09.626Z,5.50
2023-04-05T21:57:42.959Z,5.50
2023-04-05T22:00:21.226Z,5.40
2023-04-05T22:02:55.988Z,5.30
2023-04-05T22:05:37.953Z,5.30
2023-04-05T22:08:08.587Z,5.30
2023-04-05T22:10:49.875Z,5.20
2023-04-05T22:13:21.537Z,5.20
2023-04-05T22:16:27.381Z,5.20
2023-04-05T22:19:13.974Z,5.20
2023-04-05T22:21:51.683Z,5.10
2023-04-05T22:24:28.528Z,5.00
2023-04-05T22:27:01.738Z,5.00
2023-04-05T22:29:32.917Z,4.90
2023-04-05T22:32:11.950Z,4.90
2023-04-05T22:34:59.320Z,4.80
2023-04-05T22:37:44.129Z,4.80
2023-04-05T22:40:15.833Z,4.70
2023-04-05T22:42:48.305Z,4.70
2023-04-05T22:45:24.742Z,4.60
2023-04-05T22:47:57.068Z,4.60
2023-04-05T22:50:29.738Z,4.50
2023-04-05T22:53:09.520Z,4.40
2023-04-05T22:58:48.961Z,4.30
2023-04-05T23:01:25.100Z,4.20
2023-04-05T23:03:58.105Z,4.20
2023-04-05T23:06:29.355Z,4.10
2023-04-05T23:09:07.542Z,4.10
2023-04-05T23:11:51.502Z,4.10
2023-04-05T23:14:24.015Z,4.00
2023-04-05T23:17:16.176Z,3.90
2023-04-05T23:19:44.908Z,3.90
2023-04-05T23:22:25.928Z,3.80
2023-04-05T23:25:12.939Z,3.80
2023-04-05T23:27:48.042Z,3.90
2023-04-05T23:30:22.774Z,3.90
2023-04-05T23:33:00.599Z,3.80
2023-04-05T23:35:45.056Z,3.80
2023-04-05T23:38:22.134Z,3.80
2023-04-05T23:41:21.274Z,3.70
2023-04-05T23:43:55.011Z,3.70
2023-04-05T23:46:24.716Z,3.70
2023-04-05T23:48:59.408Z,3.70
2023-04-05T23:54:28.017Z,3.60
2023-04-05T23:57:09.654Z,3.60
2023-04-05T23:59:41.019Z,3.60
